createdAt,value
2023-01-23T00:00:31.557Z,8.25
2023-01-23T00:03:34.271Z,7.20
2023-01-23T00:06:36.913Z,7.70
2023-01-23T00:09:40.830Z,7.40
2023-01-23T00:12:43.896Z,8.15
2023-01-23T00:15:46.615Z,7.85
2023-01-23T00:18:49.625Z,7.80
2023-01-23T00:21:51.881Z,7.68
2023-01-23T00:24:55.462Z,8.00
2023-01-23T00:27:57.927Z,7.28
2023-01-23T00:31:04.700Z,7.78
2023-01-23T00:34:10.543Z,8.23
2023-01-23T00:37:12.963Z,7.32
2023-01-23T00:40:16.907Z,6.75
2023-01-23T00:43:19.345Z,7.45
2023-01-23T00:46:22.275Z,7.70
2023-01-23T00:49:25.150Z,7.80
2023-01-23T00:52:27.953Z,6.53
2023-01-23T00:55:31.625Z,7.88
2023-01-23T00:58:36.150Z,7.38
2023-01-23T01:01:38.949Z,6.70
2023-01-23T01:04:41.239Z,7.22
2023-01-23T01:07:43.955Z,7.68
2023-01-23T01:10:47.623Z,8.07
2023-01-23T01:13:50.281Z,6.30
2023-01-23T01:16:54.043Z,7.57
2023-01-23T01:19:56.355Z,7.25
2023-01-23T01:23:00.566Z,7.57
2023-01-23T01:26:07.915Z,7.22
2023-01-23T01:29:10.261Z,7.65
2023-01-23T01:32:13.964Z,6.93
2023-01-23T01:35:16.623Z,8.38
2023-01-23T01:38:19.092Z,7.82
2023-01-23T01:41:23.596Z,6.90
2023-01-23T01:44:27.937Z,6.75
2023-01-23T01:47:30.690Z,6.88
2023-01-23T01:50:35.168Z,7.43
2023-01-23T01:53:38.142Z,7.30
2023-01-23T01:56:44.863Z,7.05
2023-01-23T01:59:50.542Z,7.03
2023-01-23T02:02:54.560Z,7.13
2023-01-23T02:05:56.925Z,7.15
2023-01-23T02:09:03.964Z,7.28
2023-01-23T02:12:08.966Z,6.18
2023-01-23T02:15:11.339Z,7.18
2023-01-23T02:18:14.435Z,7.18
2023-01-23T02:21:19.890Z,7.15
2023-01-23T02:24:29.440Z,6.78
2023-01-23T02:27:33.038Z,6.68
2023-01-23T02:30:35.967Z,7.20
2023-01-23T02:33:45.428Z,6.38
2023-01-23T02:36:48.676Z,6.63
2023-01-23T02:39:52.267Z,6.63
2023-01-23T02:42:58.445Z,6.65
2023-01-23T02:46:02.128Z,6.15
2023-01-23T02:49:05.189Z,6.70
2023-01-23T02:52:07.628Z,6.88
2023-01-23T02:55:11.871Z,6.60
2023-01-23T02:58:34.327Z,7.15
2023-01-23T03:01:36.790Z,6.35
2023-01-23T03:04:39.261Z,7.15
2023-01-23T03:07:42.845Z,6.68
2023-01-23T03:10:45.826Z,6.70
2023-01-23T03:13:49.842Z,6.03
2023-01-23T03:16:53.986Z,6.60
2023-01-23T03:19:58.835Z,6.18
2023-01-23T03:23:02.165Z,6.28
2023-01-23T03:26:04.743Z,6.95
2023-01-23T03:29:29.757Z,6.15
2023-01-23T03:32:32.895Z,5.40
2023-01-23T03:35:35.867Z,6.55
2023-01-23T03:38:39.793Z,6.38
2023-01-23T03:41:46.256Z,6.40
2023-01-23T03:44:51.668Z,7.03
2023-01-23T03:47:56.175Z,7.43
2023-01-23T03:50:59.051Z,6.30
2023-01-23T03:54:01.562Z,6.78
2023-01-23T03:57:04.380Z,6.80
2023-01-23T04:00:28.489Z,6.00
2023-01-23T04:03:36.326Z,5.32
2023-01-23T04:06:40.725Z,6.25
2023-01-23T04:09:42.959Z,6.18
2023-01-23T04:12:45.263Z,6.43
2023-01-23T04:15:50.171Z,6.07
2023-01-23T04:18:52.884Z,6.50
2023-01-23T04:21:57.259Z,6.28
2023-01-23T04:24:59.645Z,6.43
2023-01-23T04:28:03.338Z,6.35
2023-01-23T04:31:09.588Z,6.43
2023-01-23T04:34:12.224Z,7.05
2023-01-23T04:37:16.642Z,7.68
2023-01-23T04:40:19.893Z,6.45
2023-01-23T04:43:32.074Z,6.65
2023-01-23T04:46:37.122Z,5.90
2023-01-23T04:49:44.820Z,5.88
2023-01-23T04:52:47.282Z,5.90
2023-01-23T04:55:49.808Z,5.70
2023-01-23T04:58:53.752Z,6.68
2023-01-23T05:01:59.496Z,6.40
2023-01-23T05:05:02.205Z,6.50
2023-01-23T05:08:05.577Z,6.18
2023-01-23T05:11:08.494Z,6.10
2023-01-23T05:14:10.827Z,6.38
2023-01-23T05:17:17.405Z,6.28
2023-01-23T05:20:27.572Z,6.30
2023-01-23T05:23:34.518Z,5.35
2023-01-23T05:26:37.293Z,7.05
2023-01-23T05:29:40.732Z,6.10
2023-01-23T05:32:50.889Z,5.45
2023-01-23T05:35:59.121Z,5.53
2023-01-23T05:39:01.453Z,5.90
2023-01-23T05:42:06.321Z,6.32
2023-01-23T05:45:27.300Z,5.05
2023-01-23T05:48:31.807Z,5.55
2023-01-23T05:51:35.562Z,5.40
2023-01-23T05:54:38.005Z,6.53
2023-01-23T05:57:41.450Z,5.43
2023-01-23T06:01:04.722Z,5.10
2023-01-23T06:04:26.736Z,4.45
2023-01-23T06:07:50.478Z,4.38
2023-01-23T06:10:52.774Z,5.25
2023-01-23T06:13:55.802Z,4.57
2023-01-23T06:16:58.168Z,5.65
2023-01-23T06:20:04.311Z,5.00
2023-01-23T06:23:08.933Z,5.07
2023-01-23T06:26:12.924Z,4.40
2023-01-23T06:29:15.435Z,5.32
2023-01-23T06:32:18.038Z,5.78
2023-01-23T06:35:22.592Z,6.45
2023-01-23T06:38:25.386Z,7.35
2023-01-23T06:41:28.617Z,6.10
2023-01-23T06:44:35.526Z,5.72
2023-01-23T06:47:38.081Z,5.90
2023-01-23T06:50:42.960Z,4.88
2023-01-23T06:53:45.659Z,5.43
2023-01-23T06:56:49.369Z,3.92
2023-01-23T06:59:51.995Z,4.85
2023-01-23T07:02:58.976Z,4.93
2023-01-23T07:06:06.739Z,4.75
2023-01-23T07:09:09.135Z,4.45
2023-01-23T07:12:13.246Z,5.13
2023-01-23T07:15:15.850Z,3.90
2023-01-23T07:18:18.373Z,3.90
2023-01-23T07:21:22.181Z,4.30
2023-01-23T07:24:24.781Z,4.10
2023-01-23T07:27:27.293Z,3.47
2023-01-23T07:30:29.821Z,4.30
2023-01-23T07:33:32.314Z,3.60
2023-01-23T07:36:36.120Z,4.13
2023-01-23T07:39:38.534Z,3.90
2023-01-23T07:42:41.973Z,3.80
2023-01-23T07:45:45.474Z,4.10
2023-01-23T07:48:47.817Z,3.22
2023-01-23T07:51:51.711Z,3.70
2023-01-23T07:54:54.234Z,3.50
2023-01-23T07:57:56.910Z,2.95
2023-01-23T08:00:59.348Z,3.88
2023-01-23T08:04:02.663Z,3.63
2023-01-23T08:07:06.642Z,3.13
2023-01-23T08:10:10.984Z,3.10
2023-01-23T08:13:13.290Z,3.33
2023-01-23T08:16:15.989Z,3.22
2023-01-23T08:19:19.008Z,3.55
2023-01-23T08:22:25.966Z,3.33
2023-01-23T08:25:28.334Z,3.50
2023-01-23T08:28:31.123Z,3.28
2023-01-23T08:31:33.715Z,3.70
2023-01-23T08:34:36.166Z,3.42
2023-01-23T08:37:41.942Z,3.38
2023-01-23T08:40:44.330Z,3.58
2023-01-23T08:43:46.992Z,3.28
2023-01-23T08:46:49.496Z,4.03
2023-01-23T08:49:51.926Z,3.90
2023-01-23T08:52:56.144Z,3.55
2023-01-23T08:56:02.966Z,3.45
2023-01-23T08:59:05.431Z,4.40
2023-01-23T09:02:09.676Z,3.92
2023-01-23T09:05:12.033Z,3.47
2023-01-23T09:08:15.849Z,3.95
2023-01-23T09:11:18.673Z,3.70
2023-01-23T09:14:21.167Z,4.13
2023-01-23T09:17:23.653Z,3.85
2023-01-23T09:20:26.769Z,4.43
2023-01-23T09:23:30.586Z,4.20
2023-01-23T09:26:33.231Z,3.78
2023-01-23T09:29:36.001Z,4.03
2023-01-23T09:32:38.362Z,4.28
2023-01-23T09:35:41.085Z,3.53
2023-01-23T09:38:44.955Z,3.58
2023-01-23T09:41:47.783Z,3.35
2023-01-23T09:44:53.367Z,3.70
2023-01-23T09:48:00.292Z,4.25
2023-01-23T09:51:10.619Z,3.75
2023-01-23T09:54:18.504Z,4.00
2023-01-23T09:57:24.216Z,3.92
2023-01-23T10:00:30.047Z,4.40
2023-01-23T10:03:32.788Z,3.80
2023-01-23T10:06:52.374Z,3.63
2023-01-23T10:10:07.671Z,3.60
2023-01-23T10:13:16.516Z,3.70
2023-01-23T10:16:44.959Z,3.40
2023-01-23T10:20:12.890Z,3.60
2023-01-23T10:23:30.571Z,3.97
2023-01-23T10:26:38.738Z,3.58
2023-01-23T10:29:44.274Z,4.22
2023-01-23T10:32:49.720Z,3.60
2023-01-23T10:35:53.542Z,3.53
2023-01-23T10:38:59.621Z,3.00
2023-01-23T10:42:05.614Z,3.50
2023-01-23T10:45:14.920Z,3.47
2023-01-23T10:48:40.090Z,3.38
2023-01-23T10:51:47.254Z,3.10
2023-01-23T10:54:49.727Z,2.90
2023-01-23T10:57:56.543Z,2.83
2023-01-23T11:00:59.220Z,3.47
2023-01-23T11:04:10.718Z,3.25
2023-01-23T11:07:16.522Z,3.30
2023-01-23T11:10:22.565Z,2.55
2023-01-23T11:13:30.457Z,2.75
2023-01-23T11:16:33.059Z,2.78
2023-01-23T11:19:37.296Z,2.60
2023-01-23T11:22:42.085Z,2.70
2023-01-23T11:25:46.302Z,2.03
2023-01-23T11:28:51.207Z,2.60
2023-01-23T11:31:56.323Z,1.85
2023-01-23T11:35:08.511Z,2.17
2023-01-23T11:38:13.459Z,2.70
2023-01-23T11:41:16.074Z,2.53
2023-01-23T11:44:23.010Z,2.47
2023-01-23T11:47:49.316Z,2.15
2023-01-23T11:50:56.162Z,1.90
2023-01-23T11:54:03.244Z,2.13
2023-01-23T11:57:12.299Z,1.70
2023-01-23T12:00:24.940Z,2.50
2023-01-23T12:04:11.666Z,1.92
2023-01-23T12:07:20.916Z,2.17
2023-01-23T12:10:26.473Z,2.33
2023-01-23T12:13:42.302Z,2.08
2023-01-23T12:16:58.917Z,2.20
2023-01-23T12:20:21.206Z,2.03
2023-01-23T12:23:36.956Z,2.45
2023-01-23T12:26:54.500Z,2.00
2023-01-23T12:30:09.027Z,1.58
2023-01-23T12:33:29.584Z,1.75
2023-01-23T12:36:59.727Z,1.20
2023-01-23T12:40:12.123Z,1.20
2023-01-23T12:43:17.064Z,0.98
2023-01-23T12:46:23.528Z,0.80
2023-01-23T12:49:30.775Z,0.95
2023-01-23T12:52:38.160Z,0.93
2023-01-23T12:55:46.963Z,0.77
2023-01-23T12:58:56.872Z,0.80
2023-01-23T13:02:03.894Z,0.80
2023-01-23T13:05:16.014Z,0.90
2023-01-23T13:08:25.039Z,0.70
2023-01-23T13:11:40.924Z,0.90
2023-01-23T13:18:21.810Z,0.90
2023-01-23T13:21:44.091Z,0.95
2023-01-23T13:25:06.060Z,1.10
2023-01-23T13:28:32.281Z,0.80
2023-01-23T13:31:46.446Z,1.10
2023-01-23T13:34:49.077Z,0.93
2023-01-23T13:37:53.081Z,0.90
2023-01-23T13:41:27.339Z,0.90
2023-01-23T13:44:40.910Z,0.90
2023-01-23T14:22:16.272Z,0.70
2023-01-23T14:25:18.968Z,1.00
2023-01-23T14:28:22.912Z,0.85
2023-01-23T14:31:27.421Z,0.70
2023-01-23T14:34:29.813Z,0.85
2023-01-23T14:37:33.771Z,0.80
2023-01-23T14:40:49.464Z,0.93
2023-01-23T14:43:54.937Z,0.80
2023-01-23T14:46:59.079Z,0.90
2023-01-23T14:50:01.940Z,0.80
2023-01-23T14:53:06.031Z,0.70
2023-01-23T14:56:10.213Z,0.80
2023-01-23T14:59:20.379Z,0.80
2023-01-23T15:02:26.389Z,1.52
2023-01-23T15:05:28.871Z,1.48
2023-01-23T15:08:32.437Z,1.98
2023-01-23T15:11:36.405Z,1.35
2023-01-23T15:14:41.167Z,1.88
2023-01-23T15:17:43.923Z,1.80
2023-01-23T15:20:53.025Z,2.03
2023-01-23T15:24:26.091Z,1.60
2023-01-23T15:27:32.121Z,1.55
2023-01-23T15:30:41.847Z,1.88
2023-01-23T15:33:45.248Z,2.33
2023-01-23T15:36:50.133Z,2.30
2023-01-23T15:39:54.815Z,1.90
2023-01-23T15:43:06.368Z,2.17
2023-01-23T15:46:11.547Z,2.28
2023-01-23T15:49:24.848Z,2.22
2023-01-23T15:52:30.568Z,2.20
2023-01-23T15:55:32.887Z,2.40
2023-01-23T15:58:35.213Z,2.08
2023-01-23T16:01:38.895Z,2.20
2023-01-23T16:04:41.170Z,2.22
2023-01-23T16:07:45.112Z,1.58
2023-01-23T16:10:47.531Z,2.28
2023-01-23T16:13:49.812Z,2.58
2023-01-23T16:16:54.424Z,2.20
2023-01-23T16:19:56.792Z,2.15
2023-01-23T16:23:13.866Z,2.40
2023-01-23T16:26:19.875Z,2.25
2023-01-23T16:29:26.842Z,2.13
2023-01-23T16:32:30.585Z,2.75
2023-01-23T16:35:32.977Z,2.53
2023-01-23T16:38:36.122Z,2.35
2023-01-23T16:41:38.571Z,2.28
2023-01-23T16:44:40.868Z,2.35
2023-01-23T16:47:44.824Z,2.95
2023-01-23T16:50:49.684Z,2.50
2023-01-23T16:53:53.783Z,2.45
2023-01-23T16:56:57.448Z,2.47
2023-01-23T16:59:59.729Z,2.40
2023-01-23T17:03:06.805Z,2.40
2023-01-23T17:06:12.491Z,2.30
2023-01-23T17:09:15.846Z,2.60
2023-01-23T17:12:21.125Z,2.50
2023-01-23T17:15:26.567Z,2.38
2023-01-23T17:18:32.267Z,2.65
2023-01-23T17:21:35.033Z,2.38
2023-01-23T17:24:38.007Z,2.55
2023-01-23T17:27:45.260Z,2.30
2023-01-23T17:30:50.476Z,2.00
2023-01-23T17:33:55.681Z,3.40
2023-01-23T17:36:58.107Z,2.47
2023-01-23T17:40:00.674Z,2.20
2023-01-23T17:43:02.942Z,1.92
2023-01-23T17:46:05.532Z,1.77
2023-01-23T17:49:26.029Z,2.00
2023-01-23T17:52:30.749Z,2.15
2023-01-23T17:55:33.123Z,2.00
2023-01-23T17:58:35.584Z,1.80
2023-01-23T18:01:38.174Z,1.73
2023-01-23T18:04:42.037Z,1.83
2023-01-23T18:07:53.346Z,2.00
2023-01-23T18:10:58.916Z,1.90
2023-01-23T18:14:24.708Z,1.60
2023-01-23T18:17:32.472Z,1.92
2023-01-23T18:20:37.193Z,1.80
2023-01-23T18:23:40.016Z,1.70
2023-01-23T18:26:47.787Z,1.65
2023-01-23T18:30:15.929Z,1.77
2023-01-23T18:33:41.362Z,1.67
2023-01-23T18:36:56.412Z,1.40
2023-01-23T18:40:01.643Z,1.67
2023-01-23T18:43:17.246Z,1.40
2023-01-23T18:46:21.010Z,4.45
2023-01-23T18:49:32.397Z,1.70
2023-01-23T18:55:46.651Z,1.48
2023-01-23T18:59:10.404Z,2.10
2023-01-23T19:02:20.482Z,1.63
2023-01-23T19:05:28.318Z,1.77
2023-01-23T19:08:32.771Z,1.20
2023-01-23T19:11:51.329Z,1.40
2023-01-23T19:15:02.158Z,1.60
2023-01-23T19:18:12.299Z,1.40
2023-01-23T19:21:22.943Z,1.05
2023-01-23T19:24:28.241Z,1.23
2023-01-23T19:27:32.809Z,1.60
2023-01-23T19:30:37.054Z,1.10
2023-01-23T19:33:39.389Z,1.42
2023-01-23T19:36:41.646Z,1.30
2023-01-23T19:39:46.675Z,1.27
2023-01-23T19:42:56.383Z,1.50
2023-01-23T19:46:08.675Z,1.38
2023-01-23T19:49:11.527Z,1.55
2023-01-23T19:52:15.794Z,1.23
2023-01-23T19:55:24.193Z,1.30
2023-01-23T19:58:26.525Z,1.13
2023-01-23T20:01:34.685Z,1.45
2023-01-23T20:04:37.405Z,1.40
2023-01-23T20:07:40.848Z,1.40
2023-01-23T20:10:45.396Z,1.40
2023-01-23T20:13:47.877Z,1.42
2023-01-23T20:16:50.484Z,1.13
2023-01-23T20:19:53.285Z,1.40
2023-01-23T20:22:55.731Z,1.23
2023-01-23T20:26:02.190Z,1.38
2023-01-23T20:29:05.582Z,1.38
2023-01-23T20:32:07.936Z,1.60
2023-01-23T20:35:10.715Z,1.27
2023-01-23T20:38:13.032Z,1.33
2023-01-23T20:41:19.161Z,1.00
2023-01-23T20:44:22.043Z,1.10
2023-01-23T20:47:24.345Z,1.30
2023-01-23T20:50:26.771Z,1.20
2023-01-23T20:53:32.150Z,1.30
2023-01-23T20:56:36.234Z,1.00
2023-01-23T20:59:38.887Z,1.27
2023-01-23T21:02:41.194Z,1.00
2023-01-23T21:05:43.452Z,1.10
2023-01-23T21:08:46.459Z,1.00
2023-01-23T21:11:51.219Z,1.30
2023-01-23T21:14:53.527Z,1.13
2023-01-23T21:17:55.825Z,1.20
2023-01-23T21:21:03.170Z,1.13
2023-01-23T21:24:06.008Z,1.38
2023-01-23T21:27:09.815Z,1.23
2023-01-23T21:30:12.861Z,1.50
2023-01-23T21:33:15.457Z,1.58
2023-01-23T21:36:20.294Z,1.48
2023-01-23T21:39:22.615Z,1.27
2023-01-23T21:42:26.393Z,1.27
2023-01-23T21:45:28.646Z,1.60
2023-01-23T21:48:32.098Z,1.77
2023-01-23T21:51:34.462Z,1.60
2023-01-23T21:54:36.821Z,1.40
2023-01-23T21:57:40.634Z,1.45
2023-01-23T22:01:01.506Z,1.65
2023-01-23T22:04:07.306Z,1.52
2023-01-23T22:07:09.657Z,1.40
2023-01-23T22:10:11.952Z,1.48
2023-01-23T22:13:15.583Z,1.10
2023-01-23T22:16:18.981Z,1.40
2023-01-23T22:19:25.630Z,1.50
2023-01-23T22:22:28.157Z,1.27
2023-01-23T22:25:30.417Z,1.40
2023-01-23T22:28:34.393Z,1.50
2023-01-23T22:31:36.804Z,1.30
2023-01-23T22:34:39.093Z,2.35
2023-01-23T22:37:43.448Z,1.27
2023-01-23T22:40:45.704Z,1.42
2023-01-23T22:43:54.458Z,1.30
2023-01-23T22:46:56.705Z,1.50
2023-01-23T22:49:58.950Z,1.10
2023-01-23T22:53:01.185Z,1.20
2023-01-23T22:56:06.291Z,1.23
2023-01-23T22:59:10.127Z,1.35
2023-01-23T23:02:12.427Z,1.55
2023-01-23T23:05:14.705Z,1.15
2023-01-23T23:08:17.072Z,1.20
2023-01-23T23:11:21.445Z,1.05
2023-01-23T23:14:25.131Z,0.98
2023-01-23T23:17:28.985Z,1.13
2023-01-23T23:20:31.871Z,1.13
2023-01-23T23:23:34.369Z,1.15
2023-01-23T23:26:36.621Z,1.20
2023-01-23T23:29:40.278Z,0.90
2023-01-23T23:32:42.531Z,1.00
2023-01-23T23:35:45.143Z,0.88
2023-01-23T23:38:47.584Z,1.00
2023-01-23T23:41:49.894Z,1.02
2023-01-23T23:44:53.593Z,0.90
2023-01-23T23:47:55.899Z,0.80
2023-01-23T23:51:02.281Z,0.95
2023-01-23T23:54:04.645Z,0.82
2023-01-23T23:57:06.962Z,0.80
